sensor_id;sensor_type;location;lat;lon;timestamp;P1;durP1;ratioP1;P2;durP2;ratioP2
9675;SDS011;4876;42.656;23.292;2023-06-26T00:01:08;27.00;;;20.73;;
9675;SDS011;4876;42.656;23.292;2023-06-26T00:03:35;22.63;;;19.33;;
9675;SDS011;4876;42.656;23.292;2023-06-26T00:06:01;24.63;;;18.97;;
9675;SDS011;4876;42.656;23.292;2023-06-26T00:08:29;21.67;;;19.03;;
9675;SDS011;4876;42.656;23.292;2023-06-26T00:10:55;22.70;;;19.23;;
9675;SDS011;4876;42.656;23.292;2023-06-26T00:13:24;21.47;;;19.13;;
9675;SDS011;4876;42.656;23.292;2023-06-26T00:15:51;25.03;;;19.20;;
9675;SDS011;4876;42.656;23.292;2023-06-26T00:18:18;21.47;;;19.17;;
9675;SDS011;4876;42.656;23.292;2023-06-26T00:20:44;21.00;;;18.43;;
9675;SDS011;4876;42.656;23.292;2023-06-26T00:23:11;21.90;;;18.90;;
9675;SDS011;4876;42.656;23.292;2023-06-26T00:25:41;21.10;;;18.30;;
9675;SDS011;4876;42.656;23.292;2023-06-26T00:28:08;19.07;;;17.07;;
9675;SDS011;4876;42.656;23.292;2023-06-26T00:30:37;21.17;;;18.77;;
9675;SDS011;4876;42.656;23.292;2023-06-26T00:33:04;20.07;;;16.57;;
9675;SDS011;4876;42.656;23.292;2023-06-26T00:35:30;22.63;;;17.07;;
9675;SDS011;4876;42.656;23.292;2023-06-26T00:37:57;19.60;;;16.87;;
9675;SDS011;4876;42.656;23.292;2023-06-26T00:40:24;21.97;;;17.03;;
9675;SDS011;4876;42.656;23.292;2023-06-26T00:42:51;20.03;;;15.97;;
9675;SDS011;4876;42.656;23.292;2023-06-26T00:45:18;20.50;;;16.17;;
9675;SDS011;4876;42.656;23.292;2023-06-26T00:47:46;19.13;;;15.00;;
9675;SDS011;4876;42.656;23.292;2023-06-26T00:50:13;18.27;;;15.87;;
9675;SDS011;4876;42.656;23.292;2023-06-26T00:52:41;20.27;;;16.13;;
9675;SDS011;4876;42.656;23.292;2023-06-26T00:55:08;18.07;;;14.77;;
9675;SDS011;4876;42.656;23.292;2023-06-26T00:57:35;24.03;;;15.13;;
9675;SDS011;4876;42.656;23.292;2023-06-26T01:00:03;18.70;;;14.93;;
9675;SDS011;4876;42.656;23.292;2023-06-26T01:02:30;18.00;;;15.30;;
9675;SDS011;4876;42.656;23.292;2023-06-26T01:05:00;16.97;;;14.50;;
9675;SDS011;4876;42.656;23.292;2023-06-26T01:07:31;18.90;;;15.17;;
9675;SDS011;4876;42.656;23.292;2023-06-26T01:10:01;17.40;;;15.53;;
9675;SDS011;4876;42.656;23.292;2023-06-26T01:12:29;16.43;;;14.83;;
9675;SDS011;4876;42.656;23.292;2023-06-26T01:14:57;18.53;;;14.57;;
9675;SDS011;4876;42.656;23.292;2023-06-26T01:17:24;19.57;;;14.43;;
9675;SDS011;4876;42.656;23.292;2023-06-26T01:19:56;16.53;;;14.83;;
9675;SDS011;4876;42.656;23.292;2023-06-26T01:22:27;20.17;;;14.93;;
9675;SDS011;4876;42.656;23.292;2023-06-26T01:25:01;16.53;;;14.83;;
9675;SDS011;4876;42.656;23.292;2023-06-26T01:27:39;17.10;;;15.40;;
9675;SDS011;4876;42.656;23.292;2023-06-26T01:30:08;21.00;;;15.40;;
9675;SDS011;4876;42.656;23.292;2023-06-26T01:32:35;22.03;;;15.60;;
9675;SDS011;4876;42.656;23.292;2023-06-26T01:35:04;19.67;;;15.63;;
9675;SDS011;4876;42.656;23.292;2023-06-26T01:37:33;20.27;;;16.23;;
9675;SDS011;4876;42.656;23.292;2023-06-26T01:39:59;17.57;;;15.70;;
9675;SDS011;4876;42.656;23.292;2023-06-26T01:42:26;19.93;;;15.63;;
9675;SDS011;4876;42.656;23.292;2023-06-26T01:44:55;18.13;;;15.30;;
9675;SDS011;4876;42.656;23.292;2023-06-26T01:47:23;16.97;;;15.10;;
9675;SDS011;4876;42.656;23.292;2023-06-26T01:49:56;18.50;;;15.97;;
9675;SDS011;4876;42.656;23.292;2023-06-26T01:52:32;20.93;;;15.47;;
9675;SDS011;4876;42.656;23.292;2023-06-26T01:55:09;20.33;;;15.33;;
9675;SDS011;4876;42.656;23.292;2023-06-26T01:57:42;16.80;;;15.07;;
9675;SDS011;4876;42.656;23.292;2023-06-26T02:00:13;16.97;;;15.27;;
9675;SDS011;4876;42.656;23.292;2023-06-26T02:02:43;19.03;;;15.13;;
9675;SDS011;4876;42.656;23.292;2023-06-26T02:05:10;17.07;;;15.27;;
9675;SDS011;4876;42.656;23.292;2023-06-26T02:07:38;17.13;;;15.33;;
9675;SDS011;4876;42.656;23.292;2023-06-26T02:10:05;17.10;;;15.40;;
9675;SDS011;4876;42.656;23.292;2023-06-26T02:12:33;16.23;;;14.53;;
9675;SDS011;4876;42.656;23.292;2023-06-26T02:15:00;17.20;;;15.43;;
9675;SDS011;4876;42.656;23.292;2023-06-26T02:17:29;21.10;;;15.80;;
9675;SDS011;4876;42.656;23.292;2023-06-26T02:19:55;17.13;;;14.80;;
9675;SDS011;4876;42.656;23.292;2023-06-26T02:22:22;18.27;;;16.23;;
9675;SDS011;4876;42.656;23.292;2023-06-26T02:24:49;18.53;;;16.80;;
9675;SDS011;4876;42.656;23.292;2023-06-26T02:27:16;19.57;;;17.17;;
9675;SDS011;4876;42.656;23.292;2023-06-26T02:29:42;19.57;;;17.57;;
9675;SDS011;4876;42.656;23.292;2023-06-26T02:32:09;19.37;;;16.73;;
9675;SDS011;4876;42.656;23.292;2023-06-26T02:34:37;19.50;;;16.83;;
9675;SDS011;4876;42.656;23.292;2023-06-26T02:37:04;19.20;;;16.33;;
9675;SDS011;4876;42.656;23.292;2023-06-26T02:39:32;19.23;;;16.83;;
9675;SDS011;4876;42.656;23.292;2023-06-26T02:41:59;18.83;;;17.03;;
9675;SDS011;4876;42.656;23.292;2023-06-26T02:44:26;20.73;;;18.00;;
9675;SDS011;4876;42.656;23.292;2023-06-26T02:46:53;19.47;;;17.40;;
9675;SDS011;4876;42.656;23.292;2023-06-26T02:49:20;20.07;;;18.07;;
9675;SDS011;4876;42.656;23.292;2023-06-26T02:51:48;20.97;;;18.40;;
9675;SDS011;4876;42.656;23.292;2023-06-26T02:54:15;19.40;;;17.40;;
9675;SDS011;4876;42.656;23.292;2023-06-26T02:56:42;20.17;;;17.87;;
9675;SDS011;4876;42.656;23.292;2023-06-26T02:59:09;19.70;;;17.53;;
9675;SDS011;4876;42.656;23.292;2023-06-26T03:01:36;19.37;;;17.40;;
9675;SDS011;4876;42.656;23.292;2023-06-26T03:04:03;21.73;;;19.43;;
9675;SDS011;4876;42.656;23.292;2023-06-26T03:06:30;23.30;;;18.40;;
9675;SDS011;4876;42.656;23.292;2023-06-26T03:08:58;20.63;;;18.63;;
9675;SDS011;4876;42.656;23.292;2023-06-26T03:11:25;20.40;;;18.40;;
9675;SDS011;4876;42.656;23.292;2023-06-26T03:13:52;21.13;;;18.93;;
9675;SDS011;4876;42.656;23.292;2023-06-26T03:16:18;20.60;;;17.07;;
9675;SDS011;4876;42.656;23.292;2023-06-26T03:18:45;21.53;;;19.30;;
9675;SDS011;4876;42.656;23.292;2023-06-26T03:21:12;20.10;;;18.17;;
9675;SDS011;4876;42.656;23.292;2023-06-26T03:23:39;22.00;;;17.90;;
9675;SDS011;4876;42.656;23.292;2023-06-26T03:26:07;19.97;;;18.03;;
9675;SDS011;4876;42.656;23.292;2023-06-26T03:28:34;23.60;;;18.90;;
9675;SDS011;4876;42.656;23.292;2023-06-26T03:31:01;21.57;;;19.40;;
9675;SDS011;4876;42.656;23.292;2023-06-26T03:33:27;20.43;;;18.30;;
9675;SDS011;4876;42.656;23.292;2023-06-26T03:35:54;20.60;;;18.47;;
9675;SDS011;4876;42.656;23.292;2023-06-26T03:38:21;21.87;;;18.97;;
9675;SDS011;4876;42.656;23.292;2023-06-26T03:40:49;22.77;;;19.33;;
9675;SDS011;4876;42.656;23.292;2023-06-26T03:43:17;21.40;;;19.17;;
9675;SDS011;4876;42.656;23.292;2023-06-26T03:45:44;21.47;;;19.00;;
9675;SDS011;4876;42.656;23.292;2023-06-26T03:48:11;21.10;;;18.80;;
9675;SDS011;4876;42.656;23.292;2023-06-26T03:50:38;21.53;;;19.37;;
9675;SDS011;4876;42.656;23.292;2023-06-26T03:53:05;20.93;;;18.73;;
9675;SDS011;4876;42.656;23.292;2023-06-26T03:55:31;20.60;;;18.03;;
9675;SDS011;4876;42.656;23.292;2023-06-26T03:57:59;21.23;;;18.60;;
9675;SDS011;4876;42.656;23.292;2023-06-26T04:00:27;20.23;;;18.40;;
9675;SDS011;4876;42.656;23.292;2023-06-26T04:02:54;19.13;;;17.27;;
9675;SDS011;4876;42.656;23.292;2023-06-26T04:05:21;20.47;;;18.27;;
9675;SDS011;4876;42.656;23.292;2023-06-26T04:07:50;18.63;;;16.73;;
9675;SDS011;4876;42.656;23.292;2023-06-26T04:10:17;18.87;;;16.40;;
9675;SDS011;4876;42.656;23.292;2023-06-26T04:12:45;17.00;;;15.30;;
9675;SDS011;4876;42.656;23.292;2023-06-26T04:15:13;16.90;;;15.27;;
9675;SDS011;4876;42.656;23.292;2023-06-26T04:17:41;16.00;;;14.30;;
9675;SDS011;4876;42.656;23.292;2023-06-26T04:20:08;15.97;;;14.23;;
9675;SDS011;4876;42.656;23.292;2023-06-26T04:22:35;15.77;;;14.03;;
9675;SDS011;4876;42.656;23.292;2023-06-26T04:25:02;15.13;;;13.60;;
9675;SDS011;4876;42.656;23.292;2023-06-26T04:27:30;14.70;;;13.17;;
9675;SDS011;4876;42.656;23.292;2023-06-26T04:29:56;21.30;;;13.23;;
9675;SDS011;4876;42.656;23.292;2023-06-26T04:32:23;15.40;;;13.10;;
9675;SDS011;4876;42.656;23.292;2023-06-26T04:34:51;16.33;;;12.77;;
9675;SDS011;4876;42.656;23.292;2023-06-26T04:37:19;14.87;;;13.20;;
9675;SDS011;4876;42.656;23.292;2023-06-26T04:39:45;16.20;;;12.20;;
9675;SDS011;4876;42.656;23.292;2023-06-26T04:42:12;14.07;;;12.70;;
9675;SDS011;4876;42.656;23.292;2023-06-26T04:44:39;14.53;;;13.13;;
9675;SDS011;4876;42.656;23.292;2023-06-26T04:47:07;15.13;;;13.67;;
9675;SDS011;4876;42.656;23.292;2023-06-26T04:49:34;15.23;;;13.73;;
9675;SDS011;4876;42.656;23.292;2023-06-26T04:52:02;15.40;;;13.10;;
9675;SDS011;4876;42.656;23.292;2023-06-26T04:54:30;17.77;;;13.77;;
9675;SDS011;4876;42.656;23.292;2023-06-26T04:56:57;15.77;;;13.23;;
9675;SDS011;4876;42.656;23.292;2023-06-26T04:59:25;14.43;;;13.13;;
9675;SDS011;4876;42.656;23.292;2023-06-26T05:01:52;14.27;;;12.77;;
9675;SDS011;4876;42.656;23.292;2023-06-26T05:04:19;14.83;;;13.30;;
9675;SDS011;4876;42.656;23.292;2023-06-26T05:06:45;14.63;;;13.20;;
9675;SDS011;4876;42.656;23.292;2023-06-26T05:09:14;15.83;;;13.37;;
9675;SDS011;4876;42.656;23.292;2023-06-26T05:11:40;15.97;;;13.67;;
9675;SDS011;4876;42.656;23.292;2023-06-26T05:14:07;16.07;;;14.50;;
9675;SDS011;4876;42.656;23.292;2023-06-26T05:16:34;15.77;;;14.10;;
9675;SDS011;4876;42.656;23.292;2023-06-26T05:19:01;15.20;;;13.90;;
9675;SDS011;4876;42.656;23.292;2023-06-26T05:21:28;16.07;;;14.00;;
9675;SDS011;4876;42.656;23.292;2023-06-26T05:23:56;15.80;;;14.23;;
9675;SDS011;4876;42.656;23.292;2023-06-26T05:26:25;21.53;;;14.77;;
9675;SDS011;4876;42.656;23.292;2023-06-26T05:28:53;16.97;;;15.23;;
9675;SDS011;4876;42.656;23.292;2023-06-26T05:31:20;18.20;;;15.40;;
9675;SDS011;4876;42.656;23.292;2023-06-26T05:33:48;16.73;;;15.03;;
9675;SDS011;4876;42.656;23.292;2023-06-26T05:36:16;16.73;;;14.63;;
9675;SDS011;4876;42.656;23.292;2023-06-26T05:38:44;16.30;;;14.73;;
9675;SDS011;4876;42.656;23.292;2023-06-26T05:41:11;17.10;;;15.33;;
9675;SDS011;4876;42.656;23.292;2023-06-26T05:43:40;16.80;;;14.60;;
9675;SDS011;4876;42.656;23.292;2023-06-26T05:46:07;16.40;;;14.77;;
9675;SDS011;4876;42.656;23.292;2023-06-26T05:48:33;18.87;;;15.43;;
9675;SDS011;4876;42.656;23.292;2023-06-26T05:51:01;18.70;;;14.70;;
9675;SDS011;4876;42.656;23.292;2023-06-26T05:53:29;18.13;;;15.53;;
9675;SDS011;4876;42.656;23.292;2023-06-26T05:55:56;16.83;;;14.53;;
9675;SDS011;4876;42.656;23.292;2023-06-26T05:58:24;16.90;;;15.03;;
9675;SDS011;4876;42.656;23.292;2023-06-26T06:00:54;17.10;;;15.50;;
9675;SDS011;4876;42.656;23.292;2023-06-26T06:03:21;16.37;;;13.77;;
9675;SDS011;4876;42.656;23.292;2023-06-26T06:05:47;16.93;;;15.23;;
9675;SDS011;4876;42.656;23.292;2023-06-26T06:08:14;16.10;;;14.43;;
9675;SDS011;4876;42.656;23.292;2023-06-26T06:10:41;16.50;;;14.17;;
9675;SDS011;4876;42.656;23.292;2023-06-26T06:13:08;16.00;;;13.73;;
9675;SDS011;4876;42.656;23.292;2023-06-26T06:15:35;15.20;;;13.80;;
9675;SDS011;4876;42.656;23.292;2023-06-26T06:18:03;14.40;;;13.00;;
9675;SDS011;4876;42.656;23.292;2023-06-26T06:20:30;15.27;;;13.20;;
9675;SDS011;4876;42.656;23.292;2023-06-26T06:22:56;14.10;;;12.73;;
9675;SDS011;4876;42.656;23.292;2023-06-26T06:25:23;14.63;;;13.13;;
9675;SDS011;4876;42.656;23.292;2023-06-26T06:27:50;19.60;;;12.73;;
9675;SDS011;4876;42.656;23.292;2023-06-26T06:30:17;28.83;;;14.60;;
9675;SDS011;4876;42.656;23.292;2023-06-26T06:32:44;14.80;;;13.40;;
9675;SDS011;4876;42.656;23.292;2023-06-26T06:35:16;16.30;;;13.00;;
9675;SDS011;4876;42.656;23.292;2023-06-26T06:37:43;15.07;;;12.43;;
9675;SDS011;4876;42.656;23.292;2023-06-26T06:40:10;13.77;;;12.37;;
9675;SDS011;4876;42.656;23.292;2023-06-26T06:42:38;14.20;;;12.37;;
9675;SDS011;4876;42.656;23.292;2023-06-26T06:45:05;15.17;;;12.07;;
9675;SDS011;4876;42.656;23.292;2023-06-26T06:47:33;21.40;;;12.07;;
9675;SDS011;4876;42.656;23.292;2023-06-26T06:50:00;12.60;;;11.37;;
9675;SDS011;4876;42.656;23.292;2023-06-26T06:52:34;12.37;;;11.23;;
9675;SDS011;4876;42.656;23.292;2023-06-26T06:55:02;11.33;;;10.13;;
9675;SDS011;4876;42.656;23.292;2023-06-26T06:57:31;15.63;;;9.80;;
9675;SDS011;4876;42.656;23.292;2023-06-26T07:00:01;11.20;;;10.10;;
9675;SDS011;4876;42.656;23.292;2023-06-26T07:02:29;15.03;;;10.80;;
9675;SDS011;4876;42.656;23.292;2023-06-26T07:04:56;14.00;;;10.50;;
9675;SDS011;4876;42.656;23.292;2023-06-26T07:07:23;11.57;;;10.47;;
9675;SDS011;4876;42.656;23.292;2023-06-26T07:09:51;12.00;;;10.90;;
9675;SDS011;4876;42.656;23.292;2023-06-26T07:12:18;11.03;;;9.93;;
9675;SDS011;4876;42.656;23.292;2023-06-26T07:14:44;11.43;;;10.15;;
9675;SDS011;4876;42.656;23.292;2023-06-26T07:17:11;11.15;;;7.93;;
9675;SDS011;4876;42.656;23.292;2023-06-26T07:19:38;17.40;;;8.18;;
9675;SDS011;4876;42.656;23.292;2023-06-26T07:22:05;9.30;;;8.50;;
9675;SDS011;4876;42.656;23.292;2023-06-26T07:24:32;9.85;;;8.73;;
9675;SDS011;4876;42.656;23.292;2023-06-26T07:27:00;10.50;;;9.50;;
9675;SDS011;4876;42.656;23.292;2023-06-26T07:29:27;11.15;;;8.50;;
9675;SDS011;4876;42.656;23.292;2023-06-26T07:31:54;14.68;;;9.40;;
9675;SDS011;4876;42.656;23.292;2023-06-26T07:34:20;12.60;;;9.32;;
9675;SDS011;4876;42.656;23.292;2023-06-26T07:36:47;9.57;;;8.02;;
9675;SDS011;4876;42.656;23.292;2023-06-26T07:39:14;8.98;;;6.07;;
9675;SDS011;4876;42.656;23.292;2023-06-26T07:41:41;6.40;;;5.80;;
9675;SDS011;4876;42.656;23.292;2023-06-26T07:44:09;12.63;;;6.45;;
9675;SDS011;4876;42.656;23.292;2023-06-26T07:46:36;7.18;;;6.53;;
9675;SDS011;4876;42.656;23.292;2023-06-26T07:49:03;8.82;;;8.02;;
9675;SDS011;4876;42.656;23.292;2023-06-26T07:51:30;8.50;;;7.80;;
9675;SDS011;4876;42.656;23.292;2023-06-26T07:53:56;9.32;;;7.78;;
9675;SDS011;4876;42.656;23.292;2023-06-26T07:56:23;7.32;;;6.55;;
9675;SDS011;4876;42.656;23.292;2023-06-26T07:58:50;10.20;;;6.80;;
9675;SDS011;4876;42.656;23.292;2023-06-26T08:01:19;7.72;;;6.85;;
9675;SDS011;4876;42.656;23.292;2023-06-26T08:03:46;8.43;;;6.68;;
9675;SDS011;4876;42.656;23.292;2023-06-26T08:06:12;9.98;;;7.13;;
9675;SDS011;4876;42.656;23.292;2023-06-26T08:08:39;9.23;;;7.25;;
9675;SDS011;4876;42.656;23.292;2023-06-26T08:11:06;7.90;;;7.10;;
9675;SDS011;4876;42.656;23.292;2023-06-26T08:13:33;7.93;;;7.13;;
9675;SDS011;4876;42.656;23.292;2023-06-26T08:16:00;8.40;;;6.07;;
9675;SDS011;4876;42.656;23.292;2023-06-26T08:18:28;8.80;;;6.55;;
9675;SDS011;4876;42.656;23.292;2023-06-26T08:20:55;15.43;;;7.35;;
9675;SDS011;4876;42.656;23.292;2023-06-26T08:23:21;10.23;;;7.40;;
9675;SDS011;4876;42.656;23.292;2023-06-26T08:25:49;9.02;;;7.03;;
9675;SDS011;4876;42.656;23.292;2023-06-26T08:28:16;9.00;;;6.90;;
9675;SDS011;4876;42.656;23.292;2023-06-26T08:30:43;8.07;;;7.00;;
9675;SDS011;4876;42.656;23.292;2023-06-26T08:33:10;8.40;;;6.67;;
9675;SDS011;4876;42.656;23.292;2023-06-26T08:35:38;9.05;;;6.80;;
9675;SDS011;4876;42.656;23.292;2023-06-26T08:38:05;13.00;;;6.90;;
9675;SDS011;4876;42.656;23.292;2023-06-26T08:40:34;7.57;;;6.75;;
9675;SDS011;4876;42.656;23.292;2023-06-26T08:43:01;6.60;;;5.88;;
9675;SDS011;4876;42.656;23.292;2023-06-26T08:45:29;6.90;;;6.30;;
9675;SDS011;4876;42.656;23.292;2023-06-26T08:47:56;7.05;;;5.93;;
9675;SDS011;4876;42.656;23.292;2023-06-26T08:50:30;7.20;;;5.70;;
9675;SDS011;4876;42.656;23.292;2023-06-26T08:53:02;7.78;;;5.95;;
9675;SDS011;4876;42.656;23.292;2023-06-26T08:55:32;8.30;;;5.53;;
9675;SDS011;4876;42.656;23.292;2023-06-26T08:58:01;9.27;;;6.40;;
9675;SDS011;4876;42.656;23.292;2023-06-26T09:00:28;8.20;;;6.30;;
9675;SDS011;4876;42.656;23.292;2023-06-26T09:02:56;11.18;;;5.80;;
9675;SDS011;4876;42.656;23.292;2023-06-26T09:05:23;6.63;;;5.95;;
9675;SDS011;4876;42.656;23.292;2023-06-26T09:07:50;8.10;;;5.50;;
9675;SDS011;4876;42.656;23.292;2023-06-26T09:10:22;10.98;;;5.78;;
9675;SDS011;4876;42.656;23.292;2023-06-26T09:12:49;10.10;;;6.00;;
9675;SDS011;4876;42.656;23.292;2023-06-26T09:15:18;8.43;;;6.13;;
9675;SDS011;4876;42.656;23.292;2023-06-26T09:17:47;8.23;;;6.10;;
9675;SDS011;4876;42.656;23.292;2023-06-26T09:20:15;6.77;;;6.17;;
9675;SDS011;4876;42.656;23.292;2023-06-26T09:22:42;8.17;;;6.03;;
9675;SDS011;4876;42.656;23.292;2023-06-26T09:25:13;7.40;;;6.60;;
9675;SDS011;4876;42.656;23.292;2023-06-26T09:27:42;10.37;;;6.20;;
9675;SDS011;4876;42.656;23.292;2023-06-26T09:30:10;14.03;;;6.03;;
9675;SDS011;4876;42.656;23.292;2023-06-26T09:32:37;8.30;;;6.57;;
9675;SDS011;4876;42.656;23.292;2023-06-26T09:35:04;7.33;;;6.33;;
9675;SDS011;4876;42.656;23.292;2023-06-26T09:37:32;27.40;;;7.33;;
9675;SDS011;4876;42.656;23.292;2023-06-26T09:40:00;7.33;;;6.57;;
9675;SDS011;4876;42.656;23.292;2023-06-26T09:42:28;8.17;;;6.63;;
9675;SDS011;4876;42.656;23.292;2023-06-26T09:44:56;6.93;;;6.13;;
9675;SDS011;4876;42.656;23.292;2023-06-26T09:47:24;6.40;;;5.50;;
9675;SDS011;4876;42.656;23.292;2023-06-26T09:49:51;9.50;;;6.43;;
9675;SDS011;4876;42.656;23.292;2023-06-26T09:52:20;7.50;;;5.87;;
9675;SDS011;4876;42.656;23.292;2023-06-26T09:54:46;6.27;;;4.60;;
9675;SDS011;4876;42.656;23.292;2023-06-26T09:57:15;6.30;;;5.53;;
9675;SDS011;4876;42.656;23.292;2023-06-26T09:59:43;7.77;;;5.50;;
9675;SDS011;4876;42.656;23.292;2023-06-26T10:02:12;10.20;;;5.70;;
9675;SDS011;4876;42.656;23.292;2023-06-26T10:04:39;7.77;;;6.03;;
9675;SDS011;4876;42.656;23.292;2023-06-26T10:07:06;7.23;;;5.97;;
9675;SDS011;4876;42.656;23.292;2023-06-26T10:09:37;9.83;;;6.47;;
9675;SDS011;4876;42.656;23.292;2023-06-26T10:12:09;8.00;;;6.35;;
9675;SDS011;4876;42.656;23.292;2023-06-26T10:14:41;7.00;;;5.78;;
9675;SDS011;4876;42.656;23.292;2023-06-26T10:17:09;6.53;;;5.88;;
9675;SDS011;4876;42.656;23.292;2023-06-26T10:19:41;6.75;;;5.60;;
9675;SDS011;4876;42.656;23.292;2023-06-26T10:22:10;7.05;;;5.78;;
9675;SDS011;4876;42.656;23.292;2023-06-26T10:24:41;8.23;;;5.50;;
9675;SDS011;4876;42.656;23.292;2023-06-26T10:27:10;5.95;;;5.30;;
9675;SDS011;4876;42.656;23.292;2023-06-26T10:29:42;8.55;;;6.28;;
9675;SDS011;4876;42.656;23.292;2023-06-26T10:32:12;7.53;;;5.40;;
9675;SDS011;4876;42.656;23.292;2023-06-26T10:34:41;13.88;;;6.15;;
9675;SDS011;4876;42.656;23.292;2023-06-26T10:37:08;10.70;;;5.40;;
9675;SDS011;4876;42.656;23.292;2023-06-26T10:39:48;6.13;;;5.53;;
9675;SDS011;4876;42.656;23.292;2023-06-26T10:42:16;6.32;;;5.70;;
9675;SDS011;4876;42.656;23.292;2023-06-26T10:44:44;9.67;;;6.17;;
9675;SDS011;4876;42.656;23.292;2023-06-26T10:47:12;8.07;;;5.73;;
9675;SDS011;4876;42.656;23.292;2023-06-26T10:49:57;9.10;;;5.53;;
9675;SDS011;4876;42.656;23.292;2023-06-26T10:52:43;8.17;;;5.03;;
9675;SDS011;4876;42.656;23.292;2023-06-26T10:55:10;9.90;;;5.33;;
9675;SDS011;4876;42.656;23.292;2023-06-26T10:57:37;9.10;;;5.80;;
9675;SDS011;4876;42.656;23.292;2023-06-26T11:00:08;14.55;;;7.10;;
9675;SDS011;4876;42.656;23.292;2023-06-26T11:02:47;7.83;;;6.70;;
9675;SDS011;4876;42.656;23.292;2023-06-26T11:05:24;9.33;;;6.10;;
9675;SDS011;4876;42.656;23.292;2023-06-26T11:08:05;6.73;;;6.00;;
9675;SDS011;4876;42.656;23.292;2023-06-26T11:10:48;9.07;;;6.47;;
9675;SDS011;4876;42.656;23.292;2023-06-26T11:13:16;13.20;;;6.60;;
9675;SDS011;4876;42.656;23.292;2023-06-26T11:15:44;12.90;;;7.00;;
9675;SDS011;4876;42.656;23.292;2023-06-26T11:18:12;9.47;;;6.23;;
9675;SDS011;4876;42.656;23.292;2023-06-26T11:20:40;8.50;;;6.73;;
9675;SDS011;4876;42.656;23.292;2023-06-26T11:23:08;12.27;;;7.13;;
9675;SDS011;4876;42.656;23.292;2023-06-26T11:25:37;9.20;;;6.43;;
9675;SDS011;4876;42.656;23.292;2023-06-26T11:28:05;7.13;;;6.43;;
9675;SDS011;4876;42.656;23.292;2023-06-26T11:30:35;6.97;;;6.17;;
9675;SDS011;4876;42.656;23.292;2023-06-26T11:33:04;9.60;;;6.13;;
9675;SDS011;4876;42.656;23.292;2023-06-26T11:35:32;9.73;;;6.10;;
9675;SDS011;4876;42.656;23.292;2023-06-26T11:38:02;7.40;;;6.17;;
9675;SDS011;4876;42.656;23.292;2023-06-26T11:40:30;10.90;;;5.83;;
9675;SDS011;4876;42.656;23.292;2023-06-26T11:42:59;7.03;;;5.77;;
9675;SDS011;4876;42.656;23.292;2023-06-26T11:45:27;8.37;;;5.90;;
9675;SDS011;4876;42.656;23.292;2023-06-26T11:47:55;8.07;;;6.20;;
9675;SDS011;4876;42.656;23.292;2023-06-26T11:50:22;10.63;;;5.67;;
9675;SDS011;4876;42.656;23.292;2023-06-26T11:52:53;16.80;;;6.90;;
9675;SDS011;4876;42.656;23.292;2023-06-26T11:55:22;12.03;;;6.37;;
9675;SDS011;4876;42.656;23.292;2023-06-26T11:57:49;10.53;;;6.63;;
9675;SDS011;4876;42.656;23.292;2023-06-26T12:00:16;8.43;;;6.47;;
9675;SDS011;4876;42.656;23.292;2023-06-26T12:02:44;7.37;;;6.67;;
9675;SDS011;4876;42.656;23.292;2023-06-26T12:05:11;7.27;;;6.03;;
9675;SDS011;4876;42.656;23.292;2023-06-26T12:07:39;7.88;;;6.50;;
9675;SDS011;4876;42.656;23.292;2023-06-26T12:10:06;9.05;;;6.95;;
9675;SDS011;4876;42.656;23.292;2023-06-26T12:12:35;12.23;;;6.23;;
9675;SDS011;4876;42.656;23.292;2023-06-26T12:15:02;9.68;;;6.30;;
9675;SDS011;4876;42.656;23.292;2023-06-26T12:17:29;7.80;;;6.33;;
9675;SDS011;4876;42.656;23.292;2023-06-26T12:19:56;7.30;;;6.70;;
9675;SDS011;4876;42.656;23.292;2023-06-26T12:22:23;8.20;;;5.70;;
9675;SDS011;4876;42.656;23.292;2023-06-26T12:24:50;7.80;;;5.90;;
9675;SDS011;4876;42.656;23.292;2023-06-26T12:27:17;6.97;;;5.97;;
9675;SDS011;4876;42.656;23.292;2023-06-26T12:29:49;11.20;;;6.40;;
9675;SDS011;4876;42.656;23.292;2023-06-26T12:32:18;9.87;;;5.60;;
9675;SDS011;4876;42.656;23.292;2023-06-26T12:34:46;11.45;;;6.10;;
9675;SDS011;4876;42.656;23.292;2023-06-26T12:37:14;9.65;;;6.18;;
9675;SDS011;4876;42.656;23.292;2023-06-26T12:39:45;6.45;;;5.85;;
9675;SDS011;4876;42.656;23.292;2023-06-26T12:42:13;7.25;;;6.55;;
9675;SDS011;4876;42.656;23.292;2023-06-26T12:44:41;9.77;;;6.10;;
9675;SDS011;4876;42.656;23.292;2023-06-26T12:47:09;7.03;;;6.32;;
9675;SDS011;4876;42.656;23.292;2023-06-26T12:49:38;6.88;;;6.20;;
9675;SDS011;4876;42.656;23.292;2023-06-26T12:52:07;7.40;;;6.47;;
9675;SDS011;4876;42.656;23.292;2023-06-26T12:54:35;11.25;;;5.85;;
9675;SDS011;4876;42.656;23.292;2023-06-26T12:57:02;7.93;;;6.15;;
9675;SDS011;4876;42.656;23.292;2023-06-26T12:59:29;7.50;;;6.28;;
9675;SDS011;4876;42.656;23.292;2023-06-26T13:01:56;6.53;;;5.93;;
9675;SDS011;4876;42.656;23.292;2023-06-26T13:04:24;8.87;;;6.57;;
9675;SDS011;4876;42.656;23.292;2023-06-26T13:06:51;14.13;;;5.82;;
9675;SDS011;4876;42.656;23.292;2023-06-26T13:09:21;7.67;;;5.97;;
9675;SDS011;4876;42.656;23.292;2023-06-26T13:11:50;8.15;;;6.68;;
9675;SDS011;4876;42.656;23.292;2023-06-26T13:14:17;9.50;;;6.97;;
9675;SDS011;4876;42.656;23.292;2023-06-26T13:16:44;12.50;;;6.90;;
9675;SDS011;4876;42.656;23.292;2023-06-26T13:19:10;9.40;;;7.23;;
9675;SDS011;4876;42.656;23.292;2023-06-26T13:21:39;8.00;;;7.20;;
9675;SDS011;4876;42.656;23.292;2023-06-26T13:24:07;13.47;;;7.23;;
9675;SDS011;4876;42.656;23.292;2023-06-26T13:26:34;14.50;;;6.50;;
9675;SDS011;4876;42.656;23.292;2023-06-26T13:29:01;7.47;;;6.10;;
9675;SDS011;4876;42.656;23.292;2023-06-26T13:31:28;8.20;;;6.63;;
9675;SDS011;4876;42.656;23.292;2023-06-26T13:33:56;6.40;;;5.53;;
9675;SDS011;4876;42.656;23.292;2023-06-26T13:36:23;8.17;;;6.20;;
9675;SDS011;4876;42.656;23.292;2023-06-26T13:38:52;7.13;;;5.80;;
9675;SDS011;4876;42.656;23.292;2023-06-26T13:41:21;10.27;;;5.33;;
9675;SDS011;4876;42.656;23.292;2023-06-26T13:43:48;7.90;;;5.50;;
9675;SDS011;4876;42.656;23.292;2023-06-26T13:46:15;7.70;;;5.47;;
9675;SDS011;4876;42.656;23.292;2023-06-26T13:48:43;7.83;;;5.73;;
9675;SDS011;4876;42.656;23.292;2023-06-26T13:51:10;5.93;;;5.33;;
9675;SDS011;4876;42.656;23.292;2023-06-26T13:53:37;13.90;;;5.80;;
9675;SDS011;4876;42.656;23.292;2023-06-26T13:56:05;7.87;;;5.83;;
9675;SDS011;4876;42.656;23.292;2023-06-26T13:58:34;8.77;;;5.80;;
9675;SDS011;4876;42.656;23.292;2023-06-26T14:01:01;10.70;;;5.73;;
9675;SDS011;4876;42.656;23.292;2023-06-26T14:03:29;9.00;;;6.67;;
9675;SDS011;4876;42.656;23.292;2023-06-26T14:05:56;10.60;;;5.97;;
9675;SDS011;4876;42.656;23.292;2023-06-26T14:08:22;10.33;;;6.50;;
9675;SDS011;4876;42.656;23.292;2023-06-26T14:10:49;14.00;;;6.60;;
9675;SDS011;4876;42.656;23.292;2023-06-26T14:13:17;7.50;;;6.80;;
9675;SDS011;4876;42.656;23.292;2023-06-26T14:15:44;9.27;;;6.20;;
9675;SDS011;4876;42.656;23.292;2023-06-26T14:18:11;7.40;;;5.73;;
9675;SDS011;4876;42.656;23.292;2023-06-26T14:20:38;9.63;;;6.25;;
9675;SDS011;4876;42.656;23.292;2023-06-26T14:23:05;10.23;;;6.55;;
9675;SDS011;4876;42.656;23.292;2023-06-26T14:25:31;6.28;;;5.63;;
9675;SDS011;4876;42.656;23.292;2023-06-26T14:27:58;6.60;;;5.80;;
9675;SDS011;4876;42.656;23.292;2023-06-26T14:30:26;8.98;;;5.78;;
9675;SDS011;4876;42.656;23.292;2023-06-26T14:32:53;8.02;;;5.72;;
9675;SDS011;4876;42.656;23.292;2023-06-26T14:35:20;14.85;;;6.15;;
9675;SDS011;4876;42.656;23.292;2023-06-26T14:37:48;7.40;;;6.22;;
9675;SDS011;4876;42.656;23.292;2023-06-26T14:40:15;10.57;;;6.07;;
9675;SDS011;4876;42.656;23.292;2023-06-26T14:42:42;10.05;;;5.93;;
9675;SDS011;4876;42.656;23.292;2023-06-26T14:45:10;10.57;;;6.10;;
9675;SDS011;4876;42.656;23.292;2023-06-26T14:47:38;9.15;;;6.07;;
9675;SDS011;4876;42.656;23.292;2023-06-26T14:50:06;6.18;;;5.60;;